Allensville, Kentucky
Current Conditions -  °F | °C
As of 10:52 PM on Monday 20 Oct 2014 (Local Time) from KCKV Reporting Station
Few Clouds Few Clouds  
Wind Chill: 58°   Ceiling: Unl
Heat Index: 58°   Visibility: 10mi
Dew Point: 52°   Wind: 5mph
Humidity: 81%   Direction: 240°WSW
Pressure: 30"   Gusts: NA
Location:  36.72°N, 87.07°W
Report Text: KCKV 210352Z AUTO 24004KT 10SM FEW047 14/11 A3000 RMK AO2 SLP159 T01440111
Loading
Personal Weather Stations






























Interactive Weather Map New forecast layout! Learn more

10-Day Weather Forecast

Advertisements
Track Severe Weather on mobile